createdAt,value
2022-11-24T00:00:55.016Z,3.22
2022-11-24T00:01:54.983Z,3.22
2022-11-24T00:02:55.043Z,3.23
2022-11-24T00:03:54.807Z,3.17
2022-11-24T00:04:54.734Z,3.15
2022-11-24T00:05:54.687Z,3.16
2022-11-24T00:06:54.596Z,3.19
2022-11-24T00:07:54.654Z,3.23
2022-11-24T00:08:54.460Z,3.19
2022-11-24T00:09:54.396Z,3.20
2022-11-24T00:10:54.312Z,3.23
2022-11-24T00:11:54.258Z,3.15
2022-11-24T00:12:54.172Z,3.19
2022-11-24T00:13:54.109Z,3.20
2022-11-24T00:14:54.032Z,3.17
2022-11-24T00:15:53.970Z,3.22
2022-11-24T00:16:54.004Z,3.20
2022-11-24T00:17:53.831Z,3.22
2022-11-24T00:18:53.751Z,3.19
2022-11-24T00:19:53.688Z,3.22
2022-11-24T00:20:53.613Z,3.19
2022-11-24T00:21:53.554Z,3.23
2022-11-24T00:22:53.470Z,3.26
2022-11-24T00:23:53.407Z,3.28
2022-11-24T00:24:53.333Z,3.22
2022-11-24T00:25:53.270Z,3.22
2022-11-24T00:26:53.193Z,3.22
2022-11-24T00:27:53.122Z,3.19
2022-11-24T00:28:53.052Z,3.28
2022-11-24T00:29:53.012Z,3.26
2022-11-24T00:30:52.986Z,3.28
2022-11-24T00:31:52.846Z,3.28
2022-11-24T00:32:52.773Z,3.31
2022-11-24T00:33:52.702Z,3.20
2022-11-24T00:34:52.630Z,3.23
2022-11-24T00:35:52.567Z,3.25
2022-11-24T00:36:52.487Z,3.20
2022-11-24T00:37:52.422Z,3.20
2022-11-24T00:38:52.349Z,3.23
2022-11-24T00:39:52.283Z,3.22
2022-11-24T00:40:52.214Z,3.30
2022-11-24T00:41:52.140Z,3.25
2022-11-24T00:42:52.068Z,3.22
2022-11-24T00:43:52.004Z,3.30
2022-11-24T00:44:51.945Z,3.26
2022-11-24T00:45:51.961Z,3.28
2022-11-24T00:46:51.915Z,3.22
2022-11-24T00:47:51.719Z,3.23
2022-11-24T00:48:51.657Z,3.25
2022-11-24T00:49:51.584Z,3.23
2022-11-24T00:50:51.506Z,3.25
2022-11-24T00:51:51.440Z,3.25
2022-11-24T00:52:51.376Z,3.30
2022-11-24T00:53:51.297Z,3.22
2022-11-24T00:54:51.226Z,3.30
2022-11-24T00:55:51.161Z,3.31
2022-11-24T00:56:51.094Z,3.25
2022-11-24T00:57:51.017Z,3.25
2022-11-24T00:58:50.948Z,3.22
2022-11-24T00:59:50.882Z,3.22
2022-11-24T01:00:50.807Z,3.30
2022-11-24T01:01:50.776Z,3.17
2022-11-24T01:02:50.709Z,3.22
2022-11-24T01:03:50.602Z,3.22
2022-11-24T01:04:50.536Z,3.19
2022-11-24T01:05:50.458Z,3.19
2022-11-24T01:06:50.386Z,3.22
2022-11-24T01:07:50.412Z,3.19
2022-11-24T01:08:50.243Z,3.20
2022-11-24T01:09:50.172Z,3.16
2022-11-24T01:10:50.105Z,3.22
2022-11-24T01:11:50.033Z,3.17
2022-11-24T01:12:49.981Z,3.22
2022-11-24T01:13:49.899Z,3.17
2022-11-24T01:14:49.829Z,3.22
2022-11-24T01:15:49.791Z,3.26
2022-11-24T01:16:49.689Z,3.25
2022-11-24T01:17:49.611Z,3.25
2022-11-24T01:18:49.550Z,3.19
2022-11-24T01:19:49.486Z,3.25
2022-11-24T01:20:49.400Z,3.20
2022-11-24T01:21:49.329Z,3.26
2022-11-24T01:22:49.270Z,3.25
2022-11-24T01:23:49.201Z,3.19
2022-11-24T01:24:49.122Z,3.19
2022-11-24T01:25:49.048Z,3.19
2022-11-24T01:26:48.979Z,3.17
2022-11-24T01:27:48.909Z,3.19
2022-11-24T01:28:48.838Z,3.26
2022-11-24T01:29:48.768Z,3.19
2022-11-24T01:30:48.738Z,3.20
2022-11-24T01:31:48.625Z,3.19
2022-11-24T01:32:48.558Z,3.20
2022-11-24T01:33:48.491Z,3.16
2022-11-24T01:34:48.417Z,3.20
2022-11-24T01:35:48.362Z,3.22
2022-11-24T01:36:48.282Z,3.30
2022-11-24T01:37:48.215Z,3.19
2022-11-24T01:38:48.139Z,3.17
2022-11-24T01:39:48.069Z,3.26
2022-11-24T01:40:47.996Z,3.17
2022-11-24T01:41:47.934Z,3.20
2022-11-24T01:42:47.858Z,3.25
2022-11-24T01:43:47.826Z,3.17
2022-11-24T01:44:47.718Z,3.20
2022-11-24T01:45:47.693Z,3.23
2022-11-24T01:46:47.574Z,3.17
2022-11-24T01:47:47.504Z,3.20
2022-11-24T01:48:47.442Z,3.23
2022-11-24T01:49:47.374Z,3.20
2022-11-24T01:50:47.293Z,3.20
2022-11-24T01:51:47.230Z,3.22
2022-11-24T01:52:47.157Z,3.20
2022-11-24T01:53:47.086Z,3.23
2022-11-24T01:54:47.012Z,3.25
2022-11-24T01:55:46.949Z,3.25
2022-11-24T01:56:46.882Z,3.20
2022-11-24T01:57:46.800Z,3.19
2022-11-24T01:58:46.732Z,3.22
2022-11-24T01:59:46.665Z,3.20
2022-11-24T02:00:46.594Z,3.23
2022-11-24T02:01:46.597Z,3.20
2022-11-24T02:02:46.527Z,3.19
2022-11-24T02:03:46.384Z,3.28
2022-11-24T02:04:46.313Z,3.20
2022-11-24T02:05:46.240Z,3.28
2022-11-24T02:06:46.170Z,3.19
2022-11-24T02:07:46.134Z,3.22
2022-11-24T02:08:46.034Z,3.25
2022-11-24T02:09:45.959Z,3.20
2022-11-24T02:10:45.891Z,3.26
2022-11-24T02:11:45.833Z,3.22
2022-11-24T02:12:45.749Z,3.30
2022-11-24T02:13:45.680Z,3.19
2022-11-24T02:14:45.610Z,3.20
2022-11-24T02:15:45.585Z,3.26
2022-11-24T02:16:45.471Z,3.22
2022-11-24T02:17:45.399Z,3.15
2022-11-24T02:18:45.331Z,3.19
2022-11-24T02:19:45.270Z,3.20
2022-11-24T02:20:45.189Z,3.17
2022-11-24T02:21:45.117Z,3.17
2022-11-24T02:22:45.054Z,3.17
2022-11-24T02:23:44.979Z,3.22
2022-11-24T02:24:44.913Z,3.20
2022-11-24T02:25:44.837Z,3.16
2022-11-24T02:26:44.769Z,3.19
2022-11-24T02:27:49.388Z,3.15
2022-11-24T02:28:44.631Z,3.22
2022-11-24T02:29:44.563Z,3.20
2022-11-24T02:30:44.551Z,3.19
2022-11-24T02:31:44.418Z,3.17
2022-11-24T02:32:44.348Z,3.20
2022-11-24T02:33:44.280Z,3.25
2022-11-24T02:34:44.210Z,3.19
2022-11-24T02:35:44.143Z,3.20
2022-11-24T02:36:44.068Z,3.13
2022-11-24T02:37:43.997Z,3.13
2022-11-24T02:38:43.942Z,3.15
2022-11-24T02:39:43.862Z,3.15
2022-11-24T02:40:43.796Z,3.07
2022-11-24T02:41:43.721Z,3.12
2022-11-24T02:42:43.651Z,3.15
2022-11-24T02:43:43.578Z,3.16
2022-11-24T02:44:43.512Z,3.12
2022-11-24T02:45:43.437Z,3.12
2022-11-24T02:46:43.406Z,3.15
2022-11-24T02:47:43.298Z,3.13
2022-11-24T02:48:43.231Z,3.15
2022-11-24T02:49:43.161Z,3.02
2022-11-24T02:50:43.117Z,3.10
2022-11-24T02:51:43.019Z,3.07
2022-11-24T02:52:42.983Z,3.07
2022-11-24T02:53:42.879Z,3.12
2022-11-24T02:54:42.815Z,3.02
2022-11-24T02:55:42.735Z,3.13
2022-11-24T02:56:42.669Z,3.05
2022-11-24T02:57:42.600Z,3.02
2022-11-24T02:58:42.525Z,3.08
2022-11-24T02:59:42.459Z,3.04
2022-11-24T03:00:42.400Z,3.02
2022-11-24T03:01:42.356Z,3.02
2022-11-24T03:02:42.294Z,3.02
2022-11-24T03:03:42.174Z,3.02
2022-11-24T03:04:42.105Z,3.07
2022-11-24T03:05:42.035Z,3.07
2022-11-24T03:06:41.967Z,3.02
2022-11-24T03:07:41.941Z,3.08
2022-11-24T03:08:41.839Z,3.04
2022-11-24T03:09:41.762Z,3.07
2022-11-24T03:10:41.682Z,3.04
2022-11-24T03:11:41.611Z,2.99
2022-11-24T03:12:41.550Z,2.95
2022-11-24T03:13:41.470Z,2.94
2022-11-24T03:14:41.415Z,2.94
2022-11-24T03:15:41.420Z,3.02
2022-11-24T03:16:41.266Z,2.89
2022-11-24T03:17:41.190Z,2.90
2022-11-24T03:18:41.120Z,2.87
2022-11-24T03:19:41.050Z,2.89
2022-11-24T03:20:40.979Z,2.84
2022-11-24T03:21:40.909Z,2.89
2022-11-24T03:22:40.838Z,2.87
2022-11-24T03:23:40.770Z,2.92
2022-11-24T03:24:40.697Z,2.90
2022-11-24T03:25:40.627Z,2.99
2022-11-24T03:26:40.559Z,2.90
2022-11-24T03:27:40.487Z,2.92
2022-11-24T03:28:40.417Z,2.92
2022-11-24T03:29:40.345Z,2.98
2022-11-24T03:30:40.500Z,2.98
2022-11-24T03:31:40.287Z,2.92
2022-11-24T03:32:40.137Z,2.94
2022-11-24T03:33:40.067Z,2.99
2022-11-24T03:34:39.995Z,2.98
2022-11-24T03:35:39.930Z,3.04
2022-11-24T03:36:39.854Z,2.98
2022-11-24T03:37:39.785Z,3.02
2022-11-24T03:38:39.717Z,3.08
2022-11-24T03:39:39.653Z,3.02
2022-11-24T03:40:39.575Z,3.05
2022-11-24T03:41:39.504Z,3.05
2022-11-24T03:42:39.437Z,3.07
2022-11-24T03:43:43.763Z,3.07
2022-11-24T03:44:39.293Z,2.99
2022-11-24T03:45:46.161Z,3.10
2022-11-24T03:46:39.202Z,3.05
2022-11-24T03:47:39.085Z,3.08
2022-11-24T03:48:39.014Z,3.05
2022-11-24T03:49:38.950Z,3.02
2022-11-24T03:50:38.875Z,2.97
2022-11-24T03:51:38.802Z,2.98
2022-11-24T03:52:38.742Z,3.05
2022-11-24T03:53:38.669Z,2.95
2022-11-24T03:54:38.594Z,3.02
2022-11-24T03:55:38.521Z,3.01
2022-11-24T03:56:38.469Z,3.04
2022-11-24T03:57:38.383Z,2.98
2022-11-24T03:58:38.320Z,3.07
2022-11-24T03:59:38.238Z,3.02
2022-11-24T04:00:38.172Z,3.02
2022-11-24T04:01:38.159Z,3.01
2022-11-24T04:02:38.159Z,2.99
2022-11-24T04:03:37.987Z,2.98
2022-11-24T04:04:37.892Z,2.89
2022-11-24T04:05:37.826Z,2.86
2022-11-24T04:06:37.749Z,2.90
2022-11-24T04:07:37.764Z,2.90
2022-11-24T04:08:37.612Z,2.89
2022-11-24T04:09:37.561Z,2.95
2022-11-24T04:10:37.471Z,2.89
2022-11-24T04:11:37.401Z,3.01
2022-11-24T04:12:37.330Z,2.95
2022-11-24T04:13:37.270Z,2.98
2022-11-24T04:14:37.656Z,2.84
2022-11-24T04:15:37.121Z,2.89
2022-11-24T04:16:37.118Z,2.80
2022-11-24T04:17:36.995Z,2.86
2022-11-24T04:18:36.913Z,2.84
2022-11-24T04:19:36.850Z,2.86
2022-11-24T04:20:36.769Z,2.79
2022-11-24T04:21:36.700Z,2.86
2022-11-24T04:22:36.633Z,2.80
2022-11-24T04:23:36.560Z,2.83
2022-11-24T04:24:36.584Z,2.79
2022-11-24T04:25:36.419Z,2.81
2022-11-24T04:26:36.347Z,2.66
2022-11-24T04:27:36.280Z,2.79
2022-11-24T04:28:36.209Z,2.76
2022-11-24T04:29:36.138Z,2.74
2022-11-24T04:30:36.071Z,2.79
2022-11-24T04:31:36.042Z,2.77
2022-11-24T04:32:35.936Z,2.79
2022-11-24T04:33:35.893Z,2.73
2022-11-24T04:34:36.248Z,2.77
2022-11-24T04:35:35.720Z,2.79
2022-11-24T04:36:35.651Z,2.73
2022-11-24T04:37:35.576Z,2.76
2022-11-24T04:39:24.749Z,2.74
2022-11-24T04:39:35.438Z,2.77
2022-11-24T04:40:35.379Z,2.80
2022-11-24T04:41:35.299Z,2.80
2022-11-24T04:42:35.232Z,2.79
2022-11-24T04:43:40.228Z,2.76
2022-11-24T04:44:35.482Z,2.84
2022-11-24T04:45:35.013Z,2.89
2022-11-24T04:46:35.027Z,2.86
2022-11-24T04:47:34.892Z,2.83
2022-11-24T04:48:34.800Z,2.86
2022-11-24T04:49:34.736Z,2.87
2022-11-24T04:50:34.688Z,2.83
2022-11-24T04:51:34.604Z,2.83
2022-11-24T04:52:34.519Z,2.81
2022-11-24T04:53:34.451Z,2.86
2022-11-24T04:54:34.598Z,2.79
2022-11-24T04:55:34.312Z,2.73
2022-11-24T04:56:34.240Z,2.69
2022-11-24T04:57:34.169Z,2.69
2022-11-24T04:58:34.110Z,2.66
2022-11-24T04:59:34.034Z,2.73
2022-11-24T05:00:33.958Z,2.73
2022-11-24T05:01:33.977Z,2.65
2022-11-24T05:02:33.832Z,2.80
2022-11-24T05:03:33.745Z,2.74
2022-11-24T05:04:34.161Z,2.77
2022-11-24T05:05:33.620Z,2.74
2022-11-24T05:06:33.534Z,2.76
2022-11-24T05:07:33.517Z,2.74
2022-11-24T05:08:33.420Z,2.81
2022-11-24T05:09:58.115Z,2.80
2022-11-24T05:10:33.256Z,2.89
2022-11-24T05:11:33.184Z,2.84
2022-11-24T05:12:33.113Z,2.89
2022-11-24T05:13:33.058Z,2.77
2022-11-24T05:14:33.127Z,2.77
2022-11-24T05:15:32.907Z,2.77
2022-11-24T05:16:32.933Z,2.73
2022-11-24T05:17:32.771Z,2.77
2022-11-24T05:18:32.691Z,2.81
2022-11-24T05:19:32.633Z,2.73
2022-11-24T05:20:32.563Z,2.74
2022-11-24T05:21:32.492Z,2.79
2022-11-24T05:22:32.410Z,2.80
2022-11-24T05:23:32.347Z,2.71
2022-11-24T05:24:32.676Z,2.76
2022-11-24T05:25:32.206Z,2.76
2022-11-24T05:26:32.129Z,2.66
2022-11-24T05:27:32.060Z,2.79
2022-11-24T05:28:31.995Z,2.79
2022-11-24T05:29:31.943Z,2.79
2022-11-24T05:30:31.850Z,2.74
2022-11-24T05:31:31.833Z,2.73
2022-11-24T05:32:31.711Z,2.76
2022-11-24T05:33:31.639Z,2.69
2022-11-24T05:34:31.899Z,2.77
2022-11-24T05:35:31.520Z,2.74
2022-11-24T05:36:31.451Z,2.73
2022-11-24T05:37:31.357Z,2.74
2022-11-24T05:38:31.288Z,2.74
2022-11-24T05:39:31.228Z,2.76
2022-11-24T05:40:31.148Z,2.80
2022-11-24T05:41:31.079Z,2.66
2022-11-24T05:42:31.008Z,2.74
2022-11-24T05:43:30.942Z,2.77
2022-11-24T05:44:31.009Z,2.83
2022-11-24T05:45:30.797Z,2.81
2022-11-24T05:46:30.739Z,2.79
2022-11-24T05:47:30.690Z,2.79
2022-11-24T05:48:30.584Z,2.63
2022-11-24T05:49:30.517Z,2.76
2022-11-24T05:50:30.442Z,2.74
2022-11-24T05:51:30.387Z,2.80
2022-11-24T05:52:30.332Z,2.79
2022-11-24T05:53:30.233Z,2.69
2022-11-24T05:54:30.184Z,2.83
2022-11-24T05:55:30.649Z,2.69
2022-11-24T05:56:30.021Z,2.74
2022-11-24T05:57:29.956Z,2.65
2022-11-24T05:58:29.884Z,2.79
2022-11-24T05:59:29.848Z,2.73
2022-11-24T06:00:29.739Z,2.68
2022-11-24T06:01:29.725Z,2.74
2022-11-24T06:02:29.722Z,2.83
2022-11-24T06:03:29.533Z,2.76
2022-11-24T06:04:29.518Z,2.81
2022-11-24T06:05:29.394Z,2.76
2022-11-24T06:06:29.327Z,2.74
2022-11-24T06:07:29.311Z,2.79
2022-11-24T06:08:31.234Z,2.76
2022-11-24T06:09:29.116Z,2.77
2022-11-24T06:10:29.039Z,2.84
2022-11-24T06:11:28.974Z,2.79
2022-11-24T06:12:28.898Z,2.76
2022-11-24T06:13:28.859Z,2.80
2022-11-24T06:14:28.756Z,2.79
2022-11-24T06:15:28.696Z,2.71
2022-11-24T06:16:28.669Z,2.73
2022-11-24T06:17:28.550Z,2.76
2022-11-24T06:18:28.473Z,2.76
2022-11-24T06:19:28.419Z,2.83
2022-11-24T06:20:32.494Z,2.71
2022-11-24T06:21:28.265Z,2.79
2022-11-24T06:22:28.193Z,2.65
2022-11-24T06:23:28.125Z,2.65
2022-11-24T06:24:28.065Z,2.63
2022-11-24T06:25:27.983Z,2.63
2022-11-24T06:26:27.912Z,2.59
2022-11-24T06:27:27.854Z,2.58
2022-11-24T06:28:27.778Z,2.66
2022-11-24T06:29:27.702Z,2.71
2022-11-24T06:30:27.646Z,2.62
2022-11-24T06:31:27.651Z,2.61
2022-11-24T06:32:27.497Z,2.71
2022-11-24T06:33:27.424Z,2.74
2022-11-24T06:34:27.350Z,2.65
2022-11-24T06:35:27.280Z,2.73
2022-11-24T06:36:27.210Z,2.77
2022-11-24T06:37:27.140Z,2.77
2022-11-24T06:38:27.068Z,2.76
2022-11-24T06:39:26.998Z,2.79
2022-11-24T06:40:26.941Z,2.77
2022-11-24T06:41:26.859Z,2.79
2022-11-24T06:42:26.786Z,2.79
2022-11-24T06:43:26.732Z,2.74
2022-11-24T06:44:26.650Z,2.73
2022-11-24T06:45:26.626Z,2.63
2022-11-24T06:46:26.505Z,2.71
2022-11-24T06:47:26.444Z,2.63
2022-11-24T06:48:26.397Z,2.77
2022-11-24T06:49:26.300Z,2.63
2022-11-24T06:50:32.111Z,2.65
2022-11-24T06:51:26.200Z,2.63
2022-11-24T06:52:26.084Z,2.65
2022-11-24T06:53:26.015Z,2.69
2022-11-24T06:54:25.960Z,2.68
2022-11-24T06:55:25.874Z,2.61
2022-11-24T06:56:25.800Z,2.65
2022-11-24T06:57:25.735Z,2.74
2022-11-24T06:58:25.676Z,2.76
2022-11-24T06:59:25.616Z,2.80
2022-11-24T07:00:25.520Z,2.73
2022-11-24T07:01:25.582Z,2.81
2022-11-24T07:02:25.400Z,2.81
2022-11-24T07:03:25.380Z,2.74
2022-11-24T07:04:25.240Z,2.74
2022-11-24T07:05:25.170Z,2.74
2022-11-24T07:06:25.101Z,2.89
2022-11-24T07:07:25.090Z,2.81
2022-11-24T07:08:24.958Z,2.87
2022-11-24T07:09:24.901Z,2.87
2022-11-24T07:10:24.816Z,2.80
2022-11-24T07:11:24.748Z,2.80
2022-11-24T07:12:24.677Z,2.76
2022-11-24T07:13:24.623Z,2.80
2022-11-24T07:14:24.538Z,2.79
2022-11-24T07:15:24.486Z,2.74
2022-11-24T07:16:24.463Z,2.80
2022-11-24T07:17:24.333Z,2.90
2022-11-24T07:18:24.256Z,2.65
2022-11-24T07:19:25.197Z,2.84
2022-11-24T07:20:24.115Z,2.74
2022-11-24T07:21:24.060Z,2.83
2022-11-24T07:22:23.976Z,2.81
2022-11-24T07:23:23.906Z,2.69
2022-11-24T07:24:23.833Z,2.84
2022-11-24T07:25:23.777Z,2.81
2022-11-24T07:26:23.705Z,2.84
2022-11-24T07:27:23.628Z,2.74
2022-11-24T07:28:23.554Z,2.83
2022-11-24T07:29:23.490Z,2.87
2022-11-24T07:30:23.412Z,2.83
2022-11-24T07:31:23.389Z,2.86
2022-11-24T07:32:23.332Z,2.86
2022-11-24T07:33:23.209Z,2.89
2022-11-24T07:34:23.132Z,2.90
2022-11-24T07:35:23.062Z,2.89
2022-11-24T07:36:22.997Z,3.01
2022-11-24T07:37:28.087Z,2.95
2022-11-24T07:38:22.851Z,2.95
2022-11-24T07:39:22.784Z,3.01
2022-11-24T07:40:22.720Z,2.94
2022-11-24T07:41:22.651Z,2.95
2022-11-24T07:42:22.586Z,3.01
2022-11-24T07:43:22.507Z,2.97
2022-11-24T07:44:22.429Z,2.90
2022-11-24T07:45:22.371Z,2.87
2022-11-24T07:46:22.340Z,2.89
2022-11-24T07:47:22.278Z,2.89
2022-11-24T07:48:22.150Z,3.01
2022-11-24T07:49:22.079Z,3.04
2022-11-24T07:50:22.012Z,3.04
2022-11-24T07:51:21.947Z,3.02
2022-11-24T07:52:21.869Z,3.01
2022-11-24T07:53:21.801Z,3.02
2022-11-24T07:54:21.732Z,3.02
2022-11-24T07:55:21.669Z,3.02
2022-11-24T07:56:21.591Z,3.10
2022-11-24T07:57:21.519Z,3.15
2022-11-24T07:58:21.454Z,3.10
2022-11-24T07:59:21.377Z,3.15
2022-11-24T08:00:21.308Z,3.07
2022-11-24T08:01:21.344Z,3.07
2022-11-24T08:02:21.171Z,3.13
2022-11-24T08:03:21.162Z,3.12
2022-11-24T08:04:21.026Z,3.05
2022-11-24T08:05:20.959Z,3.02
2022-11-24T08:06:26.473Z,3.05
2022-11-24T08:07:20.839Z,3.08
2022-11-24T08:08:20.748Z,3.05
2022-11-24T08:09:20.680Z,3.02
2022-11-24T08:10:20.628Z,3.04
2022-11-24T08:11:20.539Z,3.08
2022-11-24T08:12:20.477Z,3.08
2022-11-24T08:13:20.401Z,3.05
2022-11-24T08:14:20.334Z,3.05
2022-11-24T08:15:20.258Z,3.12
2022-11-24T08:16:20.271Z,3.07
2022-11-24T08:17:20.119Z,3.15
2022-11-24T08:18:20.062Z,3.16
2022-11-24T08:19:20.049Z,3.15
2022-11-24T08:20:19.911Z,3.17
2022-11-24T08:21:19.840Z,3.22
2022-11-24T08:22:19.793Z,3.28
2022-11-24T08:23:19.697Z,3.22
2022-11-24T08:24:19.634Z,3.28
2022-11-24T08:25:19.555Z,3.20
2022-11-24T08:26:19.490Z,3.20
2022-11-24T08:27:19.416Z,3.20
2022-11-24T08:28:19.369Z,3.30
2022-11-24T08:29:19.281Z,3.41
2022-11-24T08:30:19.211Z,3.41
2022-11-24T08:31:19.242Z,3.31
2022-11-24T08:32:22.478Z,3.39
2022-11-24T08:33:19.001Z,3.35
2022-11-24T08:34:18.945Z,3.39
2022-11-24T08:35:18.862Z,3.33
2022-11-24T08:36:18.787Z,3.42
2022-11-24T08:37:18.721Z,3.34
2022-11-24T08:38:18.648Z,3.37
2022-11-24T08:39:18.584Z,3.46
2022-11-24T08:40:18.525Z,3.41
2022-11-24T08:41:18.437Z,3.46
2022-11-24T08:42:18.371Z,3.45
2022-11-24T08:43:18.300Z,3.45
2022-11-24T08:44:18.251Z,3.60
2022-11-24T08:45:21.257Z,3.52
2022-11-24T08:46:18.159Z,3.46
2022-11-24T08:47:18.021Z,3.52
2022-11-24T08:48:17.955Z,3.62
2022-11-24T08:49:17.882Z,3.52
2022-11-24T08:50:17.814Z,3.46
2022-11-24T08:51:17.749Z,3.53
2022-11-24T08:52:17.669Z,3.54
2022-11-24T08:53:17.599Z,3.54
2022-11-24T08:54:17.531Z,3.62
2022-11-24T08:55:17.461Z,3.59
2022-11-24T08:56:17.391Z,3.72
2022-11-24T08:57:21.827Z,3.57
2022-11-24T08:58:17.252Z,3.60
2022-11-24T08:59:17.239Z,3.68
2022-11-24T09:00:17.111Z,3.72
2022-11-24T09:01:17.093Z,3.62
2022-11-24T09:02:16.984Z,3.70
2022-11-24T09:03:16.901Z,3.62
2022-11-24T09:04:16.900Z,3.62
2022-11-24T09:05:43.594Z,3.68
2022-11-24T09:06:16.714Z,3.68
2022-11-24T09:07:16.681Z,3.71
2022-11-24T09:08:16.556Z,3.80
2022-11-24T09:09:16.495Z,3.84
2022-11-24T09:10:16.413Z,3.80
2022-11-24T09:11:16.344Z,3.82
2022-11-24T09:12:16.274Z,3.88
2022-11-24T09:13:16.215Z,3.92
2022-11-24T09:14:16.138Z,3.96
2022-11-24T09:15:16.065Z,4.04
2022-11-24T09:16:16.079Z,3.90
2022-11-24T09:17:15.927Z,3.88
2022-11-24T09:18:15.867Z,3.88
2022-11-24T09:19:15.821Z,3.86
2022-11-24T09:20:15.767Z,3.86
2022-11-24T09:21:15.700Z,3.89
2022-11-24T09:22:15.612Z,3.92
2022-11-24T09:23:15.837Z,3.96
2022-11-24T09:24:15.472Z,4.02
2022-11-24T09:25:15.452Z,4.08
2022-11-24T09:26:15.316Z,4.07
2022-11-24T09:27:15.333Z,4.14
2022-11-24T09:28:15.388Z,4.07
2022-11-24T09:29:15.096Z,4.13
2022-11-24T09:30:15.268Z,4.14
2022-11-24T09:31:15.017Z,4.25
2022-11-24T09:32:14.888Z,4.21
2022-11-24T09:33:14.847Z,4.16
2022-11-24T09:34:14.760Z,4.25
2022-11-24T09:35:14.702Z,4.25
2022-11-24T09:36:14.679Z,4.25
2022-11-24T09:37:14.571Z,4.26
2022-11-24T09:38:14.524Z,4.34
2022-11-24T09:39:14.443Z,4.29
2022-11-24T09:40:14.356Z,4.34
2022-11-24T09:41:14.280Z,4.36
2022-11-24T09:42:14.265Z,4.31
2022-11-24T09:43:14.135Z,4.38
2022-11-24T09:44:14.092Z,4.44
2022-11-24T09:45:14.029Z,4.36
2022-11-24T09:46:14.218Z,4.29
2022-11-24T09:47:13.995Z,4.28
2022-11-24T09:48:13.792Z,4.28
2022-11-24T09:49:13.778Z,4.32
2022-11-24T09:50:13.693Z,4.36
2022-11-24T09:51:13.601Z,4.47
2022-11-24T09:52:13.520Z,4.38
2022-11-24T09:53:13.455Z,4.57
2022-11-24T09:54:13.376Z,4.51
2022-11-24T09:55:13.312Z,4.57
2022-11-24T09:56:13.377Z,4.62
2022-11-24T09:57:13.213Z,4.87
2022-11-24T09:58:13.180Z,4.77
2022-11-24T09:59:13.028Z,4.84
2022-11-24T10:00:12.984Z,4.86
2022-11-24T10:01:12.934Z,4.93
2022-11-24T10:02:12.850Z,5.01
2022-11-24T10:03:12.776Z,5.01
2022-11-24T10:04:12.791Z,4.96
2022-11-24T10:05:12.696Z,4.91
2022-11-24T10:06:12.652Z,4.97
2022-11-24T10:07:12.567Z,5.11
2022-11-24T10:08:12.479Z,5.09
2022-11-24T10:09:12.375Z,5.06
2022-11-24T10:10:12.286Z,5.04
2022-11-24T10:11:12.216Z,5.01
2022-11-24T10:12:12.224Z,5.14
2022-11-24T10:13:12.093Z,5.44
2022-11-24T10:14:12.010Z,5.29
2022-11-24T10:15:11.951Z,5.44
2022-11-24T10:16:11.993Z,5.73
2022-11-24T10:17:11.832Z,6.01
2022-11-24T10:18:16.462Z,6.30
2022-11-24T10:19:11.667Z,6.08
2022-11-24T10:20:11.766Z,6.14
2022-11-24T10:21:11.581Z,6.25
2022-11-24T10:22:11.486Z,6.39
2022-11-24T10:23:11.452Z,6.38
2022-11-24T10:24:11.652Z,6.54
2022-11-24T10:25:11.364Z,6.63
2022-11-24T10:26:11.610Z,6.60
2022-11-24T10:27:11.296Z,6.75
2022-11-24T10:28:11.320Z,6.64
2022-11-24T10:29:11.095Z,6.60
2022-11-24T10:30:10.977Z,6.45
2022-11-24T10:31:10.958Z,6.28
2022-11-24T10:32:10.836Z,6.08
2022-11-24T10:33:10.787Z,5.96
2022-11-24T10:34:10.782Z,5.92
2022-11-24T10:35:10.701Z,5.83
2022-11-24T10:36:10.593Z,5.92
2022-11-24T10:37:10.549Z,5.70
2022-11-24T10:38:10.615Z,5.65
2022-11-24T10:39:10.374Z,5.83
2022-11-24T10:40:21.309Z,5.88
2022-11-24T10:41:10.371Z,5.98
2022-11-24T10:42:10.257Z,5.99
2022-11-24T10:43:10.295Z,6.02
2022-11-24T10:44:10.048Z,6.17
2022-11-24T10:45:09.995Z,6.24
2022-11-24T10:46:10.040Z,6.28
2022-11-24T10:47:09.904Z,6.42
2022-11-24T10:48:09.881Z,6.43
2022-11-24T10:49:09.729Z,6.30
2022-11-24T10:50:09.674Z,6.24
2022-11-24T10:51:09.685Z,6.27
2022-11-24T10:52:09.669Z,6.24
2022-11-24T10:53:09.497Z,6.21
2022-11-24T10:54:09.405Z,6.39
2022-11-24T10:55:09.373Z,6.30
2022-11-24T10:56:09.231Z,6.33
2022-11-24T10:57:09.187Z,6.43
2022-11-24T10:58:09.254Z,6.50
2022-11-24T10:59:09.079Z,6.53
2022-11-24T11:00:09.043Z,6.60
2022-11-24T11:01:09.064Z,6.64
2022-11-24T11:02:08.974Z,6.72
2022-11-24T11:03:08.888Z,6.75
2022-11-24T11:04:08.780Z,7.00
2022-11-24T11:05:08.750Z,7.00
2022-11-24T11:06:08.793Z,7.15
2022-11-24T11:07:08.584Z,7.08
2022-11-24T11:08:08.471Z,7.11
2022-11-24T11:09:08.480Z,6.97
2022-11-24T11:10:08.352Z,6.97
2022-11-24T11:11:08.361Z,6.99
2022-11-24T11:12:35.812Z,6.97
2022-11-24T11:13:08.197Z,6.99
2022-11-24T11:14:08.206Z,7.04
2022-11-24T11:15:08.007Z,7.00
2022-11-24T11:16:08.613Z,6.91
2022-11-24T11:17:07.883Z,6.87
2022-11-24T11:18:08.091Z,6.76
2022-11-24T11:19:26.014Z,6.78
2022-11-24T11:20:08.050Z,6.69
2022-11-24T11:21:07.669Z,6.42
2022-11-24T11:22:07.637Z,6.51
2022-11-24T11:23:07.513Z,6.39
2022-11-24T11:24:07.489Z,6.33
2022-11-24T11:25:07.374Z,6.19
2022-11-24T11:26:07.304Z,6.17
2022-11-24T11:27:07.255Z,6.10
2022-11-24T11:28:10.615Z,6.06
2022-11-24T11:31:18.067Z,6.32
2022-11-24T11:34:10.901Z,6.32
2022-11-24T11:35:06.798Z,6.30
2022-11-24T11:36:06.671Z,6.33
2022-11-24T11:37:06.575Z,6.38
2022-11-24T11:38:06.529Z,6.39
2022-11-24T11:39:06.516Z,6.39
2022-11-24T11:40:06.399Z,6.39
2022-11-24T11:41:06.312Z,6.28
2022-11-24T11:42:06.243Z,6.35
2022-11-24T11:43:06.220Z,6.35
2022-11-24T11:44:06.088Z,6.33
2022-11-24T11:45:06.026Z,6.32
2022-11-24T11:46:06.081Z,6.38
2022-11-24T11:47:05.936Z,6.45
2022-11-24T11:48:05.853Z,6.39
2022-11-24T11:49:05.848Z,6.40
2022-11-24T11:50:05.752Z,6.28
2022-11-24T11:51:34.552Z,6.27
2022-11-24T11:52:05.559Z,6.20
2022-11-24T11:53:05.505Z,6.10
2022-11-24T11:54:05.779Z,6.17
2022-11-24T11:55:05.411Z,6.17
2022-11-24T11:56:05.313Z,6.19
2022-11-24T11:57:05.411Z,6.21
2022-11-24T11:58:05.137Z,6.21
2022-11-24T11:59:05.078Z,6.25
2022-11-24T12:00:05.026Z,6.21
2022-11-24T12:01:05.040Z,6.33
2022-11-24T12:02:04.887Z,6.36
2022-11-24T12:03:05.025Z,6.51
2022-11-24T12:04:04.933Z,6.48
2022-11-24T12:05:04.725Z,6.54
2022-11-24T12:06:04.645Z,6.58
2022-11-24T12:07:04.588Z,6.61
2022-11-24T12:08:09.399Z,6.68
2022-11-24T12:09:19.872Z,6.76
2022-11-24T12:10:04.359Z,6.82
2022-11-24T12:11:04.289Z,6.78
2022-11-24T12:12:04.208Z,6.86
2022-11-24T12:13:04.180Z,6.96
2022-11-24T12:14:04.161Z,6.82
2022-11-24T12:15:10.266Z,6.82
2022-11-24T12:16:04.028Z,6.68
2022-11-24T12:17:03.863Z,6.60
2022-11-24T12:18:03.814Z,6.64
2022-11-24T12:19:03.799Z,6.64
2022-11-24T12:20:03.680Z,6.64
2022-11-24T12:21:03.610Z,6.68
2022-11-24T12:22:03.541Z,6.63
2022-11-24T12:23:03.463Z,6.71
2022-11-24T12:24:03.447Z,6.68
2022-11-24T12:25:03.420Z,6.64
2022-11-24T12:26:03.274Z,6.78
2022-11-24T12:27:03.245Z,6.83
2022-11-24T12:28:03.162Z,6.81
2022-11-24T12:29:03.063Z,6.78
2022-11-24T12:30:03.023Z,6.76
2022-11-24T12:31:03.061Z,6.82
2022-11-24T12:32:02.863Z,6.89
2022-11-24T12:33:02.828Z,6.94
2022-11-24T12:34:02.757Z,6.97
2022-11-24T12:35:02.679Z,6.89
2022-11-24T12:36:02.845Z,7.00
2022-11-24T12:37:02.542Z,7.07
2022-11-24T12:38:02.474Z,7.14
2022-11-24T12:39:02.406Z,7.14
2022-11-24T12:40:02.373Z,7.05
2022-11-24T12:41:25.464Z,7.08
2022-11-24T12:42:02.209Z,7.19
2022-11-24T12:43:02.184Z,7.14
2022-11-24T12:44:02.061Z,7.21
2022-11-24T12:45:02.012Z,7.18
2022-11-24T12:46:01.991Z,7.18
2022-11-24T12:47:01.931Z,7.23
2022-11-24T12:48:01.895Z,7.24
2022-11-24T12:49:01.768Z,7.33
2022-11-24T12:50:01.737Z,7.32
2022-11-24T12:51:02.791Z,7.37
2022-11-24T12:52:01.571Z,7.29
2022-11-24T12:53:01.481Z,7.37
2022-11-24T12:54:01.518Z,7.30
2022-11-24T12:55:01.369Z,7.32
2022-11-24T12:56:01.295Z,7.39
2022-11-24T12:57:01.278Z,7.41
2022-11-24T12:58:03.943Z,7.24
2022-11-24T12:59:01.111Z,7.27
2022-11-24T13:00:01.022Z,7.34
2022-11-24T13:01:00.961Z,7.41
2022-11-24T13:02:01.004Z,7.48
2022-11-24T13:03:00.953Z,7.44
2022-11-24T13:04:00.748Z,7.41
2022-11-24T13:05:00.686Z,7.41
2022-11-24T13:06:00.602Z,7.41
2022-11-24T13:07:00.593Z,7.48
2022-11-24T13:08:00.703Z,7.42
2022-11-24T13:09:00.448Z,7.44
2022-11-24T13:10:00.445Z,7.41
2022-11-24T13:11:00.318Z,7.41
2022-11-24T13:12:03.506Z,7.39
2022-11-24T13:13:00.241Z,7.42
2022-11-24T13:14:00.112Z,7.45
2022-11-24T13:15:00.052Z,7.50
2022-11-24T13:17:28.032Z,7.44
2022-11-24T13:18:08.576Z,7.41
2022-11-24T13:18:59.861Z,7.42
2022-11-24T13:19:59.822Z,7.45
2022-11-24T13:20:59.735Z,7.42
2022-11-24T13:21:59.581Z,7.45
2022-11-24T13:22:59.752Z,7.48